Time;durP1;ratioP1;P1;durP2;ratioP2;P2;SDS_P1;SDS_P2;PMS_P1;PMS_P2;Temp;Humidity;BMP_temperature;BMP_pressure;BME280_temperature;BME280_humidity;BME280_pressure;Samples;Min_cycle;Max_cycle;Signal;HPM_P1;HPM_P2
2024/04/16 00:00:19;;;;;;;7.15;1.98;;;;;;;;;;6371720;22;20016;-84
2024/04/16 00:02:46;;;;;;;2.58;1.77;;;;;;;;;;6372466;22;20007;-84
2024/04/16 00:05:13;;;;;;;5.07;1.70;;;;;;;;;;6373426;22;20010;-84
2024/04/16 00:07:55;;;;;;;6.40;1.92;;;;;;;;;;6371164;22;20003;-84
2024/04/16 00:10:22;;;;;;;2.63;1.65;;;;;;;;;;6370063;22;20869;-84
2024/04/16 00:12:57;;;;;;;1.90;1.50;;;;;;;;;;6370177;22;20074;-84
2024/04/16 00:15:25;;;;;;;3.97;1.63;;;;;;;;;;6372361;22;20018;-84
2024/04/16 00:17:52;;;;;;;5.13;2.03;;;;;;;;;;6370116;22;20000;-84
2024/04/16 00:20:27;;;;;;;3.50;1.63;;;;;;;;;;6372531;22;20007;-84
2024/04/16 00:22:54;;;;;;;2.38;1.75;;;;;;;;;;6371363;22;20027;-85
2024/04/16 00:25:28;;;;;;;2.92;1.85;;;;;;;;;;6372192;22;20038;-84
2024/04/16 00:28:01;;;;;;;4.97;1.88;;;;;;;;;;6370473;22;19999;-84
2024/04/16 00:30:35;;;;;;;2.08;1.52;;;;;;;;;;6372372;22;20011;-84
2024/04/16 00:33:09;;;;;;;3.80;1.75;;;;;;;;;;6368879;22;19996;-84
2024/04/16 00:35:44;;;;;;;3.63;1.55;;;;;;;;;;6369377;22;20007;-84
2024/04/16 00:38:11;;;;;;;2.58;1.70;;;;;;;;;;6370053;22;20709;-85
2024/04/16 00:40:38;;;;;;;2.97;1.80;;;;;;;;;;6370437;22;20312;-84
2024/04/16 00:43:16;;;;;;;4.43;1.40;;;;;;;;;;6369945;22;20042;-85
2024/04/16 00:45:52;;;;;;;1.83;1.30;;;;;;;;;;6372357;22;20043;-85
2024/04/16 00:48:27;;;;;;;2.67;1.20;;;;;;;;;;6371156;22;20322;-84
2024/04/16 00:50:56;;;;;;;6.72;1.77;;;;;;;;;;6372083;22;19999;-84
2024/04/16 00:53:25;;;;;;;4.00;1.60;;;;;;;;;;6369855;22;19999;-84
2024/04/16 00:55:59;;;;;;;4.65;1.50;;;;;;;;;;6372374;22;20055;-84
2024/04/16 00:58:27;;;;;;;;;;;;;;;;;;6370623;22;20003;-85
2024/04/16 01:00:55;;;;;;;2.67;1.63;;;;;;;;;;6371761;22;19994;-84
2024/04/16 01:03:29;;;;;;;2.55;1.40;;;;;;;;;;6370708;22;19999;-85
2024/04/16 01:05:56;;;;;;;2.33;1.60;;;;;;;;;;6372691;22;20047;-85
2024/04/16 01:08:23;;;;;;;1.75;1.20;;;;;;;;;;6366611;22;20003;-84
2024/04/16 01:11:04;;;;;;;2.00;1.30;;;;;;;;;;6372571;22;20013;-84
2024/04/16 01:13:32;;;;;;;1.67;1.30;;;;;;;;;;6369455;22;20004;-84
2024/04/16 01:16:06;;;;;;;3.40;1.20;;;;;;;;;;6372587;22;20003;-84
2024/04/16 01:18:40;;;;;;;1.63;1.30;;;;;;;;;;6371395;22;20000;-84
2024/04/16 01:21:07;;;;;;;1.45;1.20;;;;;;;;;;6372385;22;20013;-83
2024/04/16 01:23:34;;;;;;;1.65;1.38;;;;;;;;;;6371648;22;20011;-84
2024/04/16 01:26:09;;;;;;;1.55;1.30;;;;;;;;;;6371263;22;20019;-84
2024/04/16 01:28:36;;;;;;;3.53;1.50;;;;;;;;;;6372337;22;20023;-84
2024/04/16 01:31:03;;;;;;;1.13;0.98;;;;;;;;;;6372257;22;20437;-84
2024/04/16 01:33:44;;;;;;;1.95;1.33;;;;;;;;;;6368257;22;20007;-84
2024/04/16 01:36:11;;;;;;;3.10;1.35;;;;;;;;;;6371365;22;20004;-84
2024/04/16 01:38:45;;;;;;;1.20;1.00;;;;;;;;;;6369284;22;20014;-84
2024/04/16 01:41:13;;;;;;;;;;;;;;;;;;6372925;22;20019;-85
2024/04/16 01:43:40;;;;;;;3.75;1.23;;;;;;;;;;6371149;22;19923;-84
2024/04/16 01:46:14;;;;;;;3.38;1.27;;;;;;;;;;6370707;22;20437;-83
2024/04/16 01:48:42;;;;;;;2.50;1.52;;;;;;;;;;6370801;22;20013;-84
2024/04/16 01:51:09;;;;;;;1.75;1.38;;;;;;;;;;6371305;22;20336;-84
2024/04/16 01:53:44;;;;;;;1.27;1.10;;;;;;;;;;6373727;22;20015;-85
2024/04/16 01:56:12;;;;;;;1.77;1.48;;;;;;;;;;6371558;22;20015;-83
2024/04/16 01:58:47;;;;;;;2.47;1.63;;;;;;;;;;6374960;22;20007;-84
2024/04/16 02:01:14;;;;;;;1.92;1.35;;;;;;;;;;6372098;22;20007;-84
2024/04/16 02:03:41;;;;;;;2.70;1.58;;;;;;;;;;6371540;22;19999;-84
2024/04/16 02:06:16;;;;;;;2.33;1.48;;;;;;;;;;6374740;22;20003;-83
2024/04/16 02:08:51;;;;;;;3.78;1.42;;;;;;;;;;6374920;22;20495;-83
2024/04/16 02:11:25;;;;;;;4.38;1.63;;;;;;;;;;6373552;22;20056;-84
2024/04/16 02:13:53;;;;;;;2.58;1.40;;;;;;;;;;6374106;22;20003;-83
2024/04/16 02:16:20;;;;;;;1.98;1.40;;;;;;;;;;6376493;22;20083;-84
2024/04/16 02:18:55;;;;;;;2.17;1.50;;;;;;;;;;6373975;22;20313;-85
2024/04/16 02:21:22;;;;;;;3.40;1.40;;;;;;;;;;6374607;22;20068;-84
2024/04/16 02:23:56;;;;;;;4.20;1.60;;;;;;;;;;6374937;22;19999;-84
2024/04/16 02:26:23;;;;;;;2.75;1.70;;;;;;;;;;6372847;22;20015;-84
2024/04/16 02:28:57;;;;;;;2.38;1.52;;;;;;;;;;6373070;22;19999;-84
2024/04/16 02:31:32;;;;;;;5.00;1.60;;;;;;;;;;6371957;22;20031;-83
2024/04/16 02:33:59;;;;;;;2.38;1.48;;;;;;;;;;6371272;22;20003;-84
2024/04/16 02:36:39;;;;;;;3.38;1.38;;;;;;;;;;6370988;22;20022;-84
2024/04/16 02:39:06;;;;;;;1.75;1.33;;;;;;;;;;6373480;22;20031;-84
2024/04/16 02:41:40;;;;;;;2.92;1.20;;;;;;;;;;6371707;22;20079;-86
2024/04/16 02:44:08;;;;;;;4.22;1.42;;;;;;;;;;6371518;22;20007;-85
2024/04/16 02:46:35;;;;;;;2.35;1.15;;;;;;;;;;6373625;22;20078;-85
2024/04/16 02:49:08;;;;;;;1.25;1.15;;;;;;;;;;6372359;22;20428;-84
2024/04/16 02:51:36;;;;;;;2.15;1.15;;;;;;;;;;6373647;22;20011;-84
2024/04/16 02:54:10;;;;;;;2.00;1.35;;;;;;;;;;6374318;22;20011;-84
2024/04/16 02:56:37;;;;;;;4.75;1.15;;;;;;;;;;6373349;22;20457;-84
2024/04/16 02:59:04;;;;;;;3.42;1.05;;;;;;;;;;6371793;22;20000;-84
2024/04/16 03:01:39;;;;;;;1.92;1.27;;;;;;;;;;6372723;22;20083;-83
2024/04/16 03:04:06;;;;;;;2.20;0.90;;;;;;;;;;6371531;22;20377;-83
2024/04/16 03:06:34;;;;;;;2.50;1.15;;;;;;;;;;6372846;22;20512;-84
2024/04/16 03:09:14;;;;;;;4.93;1.30;;;;;;;;;;6373781;22;19999;-84
2024/04/16 03:11:42;;;;;;;1.73;1.13;;;;;;;;;;6373201;22;20014;-85
2024/04/16 03:14:16;;;;;;;1.20;1.00;;;;;;;;;;6371625;22;19999;-84
2024/04/16 03:16:43;;;;;;;1.58;1.13;;;;;;;;;;6373214;22;20018;-84
2024/04/16 03:19:11;;;;;;;;;;;;;;;;;;6372162;22;20385;-84
2024/04/16 03:21:45;;;;;;;2.58;1.30;;;;;;;;;;6373074;22;19924;-84
2024/04/16 03:24:12;;;;;;;3.40;1.50;;;;;;;;;;6371086;22;19999;-84
2024/04/16 03:26:46;;;;;;;3.03;1.23;;;;;;;;;;6374054;22;20099;-84
2024/04/16 03:29:20;;;;;;;3.97;1.52;;;;;;;;;;6373606;22;20008;-83
2024/04/16 03:31:55;;;;;;;2.42;1.20;;;;;;;;;;6373506;22;20015;-83
2024/04/16 03:34:28;;;;;;;2.40;1.25;;;;;;;;;;6374012;22;20013;-83
2024/04/16 03:37:09;;;;;;;4.00;1.40;;;;;;;;;;6373106;22;20039;-83
2024/04/16 03:39:36;;;;;;;4.25;1.52;;;;;;;;;;6373669;22;20011;-84
2024/04/16 03:42:11;;;;;;;2.42;1.75;;;;;;;;;;6370906;22;20638;-84
2024/04/16 03:44:44;;;;;;;2.78;1.83;;;;;;;;;;6374418;22;19999;-82
2024/04/16 03:47:19;;;;;;;3.15;1.73;;;;;;;;;;6374610;22;20003;-84
2024/04/16 03:49:46;;;;;;;2.22;1.30;;;;;;;;;;6372944;22;19999;-84
2024/04/16 03:52:13;;;;;;;2.70;1.40;;;;;;;;;;6376810;22;20003;-83
2024/04/16 03:54:48;;;;;;;3.40;1.75;;;;;;;;;;6376023;22;20010;-84
2024/04/16 03:57:15;;;;;;;3.90;1.70;;;;;;;;;;6377238;22;20003;-84
2024/04/16 04:02:36;;;;;;;2.90;1.58;;;;;;;;;;6373135;22;19995;-84
2024/04/16 04:05:03;;;;;;;3.67;1.77;;;;;;;;;;6373477;22;20336;-84
2024/04/16 04:07:31;;;;;;;8.77;2.03;;;;;;;;;;6373231;22;20011;-84
2024/04/16 04:10:13;;;;;;;3.78;1.52;;;;;;;;;;6372974;22;20025;-84
2024/04/16 04:12:40;;;;;;;4.50;2.20;;;;;;;;;;6370656;22;19999;-84
2024/04/16 04:15:18;;;;;;;6.43;1.98;;;;;;;;;;6372676;22;20015;-83
2024/04/16 04:17:47;;;;;;;2.75;1.60;;;;;;;;;;6311844;22;20008;-85
2024/04/16 04:20:15;;;;;;;;;;;;;;;;;;6314347;22;20016;-84
2024/04/16 04:22:49;;;;;;;2.60;1.92;;;;;;;;;;6272354;22;20250;-84
2024/04/16 04:25:16;;;;;;;;;;;;;;;;;;6275894;22;20430;-83
2024/04/16 04:27:51;;;;;;;3.80;1.67;;;;;;;;;;6274676;22;19948;-84
2024/04/16 04:30:18;;;;;;;4.43;1.63;;;;;;;;;;6274769;22;20009;-84
2024/04/16 04:32:49;;;;;;;3.05;2.10;;;;;;;;;;6314810;22;20012;-83
2024/04/16 04:35:23;;;;;;;3.25;1.73;;;;;;;;;;6276975;22;20016;-84
2024/04/16 04:37:56;;;;;;;3.08;1.70;;;;;;;;;;6314654;22;20020;-83
2024/04/16 04:40:31;;;;;;;2.75;1.70;;;;;;;;;;6276481;22;20004;-84
2024/04/16 04:42:59;;;;;;;3.03;1.70;;;;;;;;;;6310232;22;20441;-83
2024/04/16 04:45:27;;;;;;;4.35;1.60;;;;;;;;;;6272609;22;20005;-83
2024/04/16 04:48:02;;;;;;;2.85;1.42;;;;;;;;;;6273189;22;20000;-83
2024/04/16 04:50:29;;;;;;;2.92;1.80;;;;;;;;;;6272790;22;20024;-83
2024/04/16 04:53:05;;;;;;;1.75;1.58;;;;;;;;;;6308631;22;20017;-83
2024/04/16 04:55:32;;;;;;;3.10;1.52;;;;;;;;;;6311397;22;20076;-82
2024/04/16 04:58:07;;;;;;;2.47;1.60;;;;;;;;;;6273157;22;20012;-84
2024/04/16 05:00:34;;;;;;;4.60;2.00;;;;;;;;;;6274720;22;20007;-84
2024/04/16 05:03:01;;;;;;;4.35;1.65;;;;;;;;;;6275098;22;20009;-83
2024/04/16 05:05:36;;;;;;;2.33;1.45;;;;;;;;;;6312635;22;20001;-84
2024/04/16 05:08:09;;;;;;;;;;;;;;;;;;6314040;22;20021;-83
2024/04/16 05:10:48;;;;;;;2.38;1.90;;;;;;;;;;6273810;22;19985;-84
2024/04/16 05:13:17;;;;;;;5.00;1.63;;;;;;;;;;6274247;22;20020;-83
2024/04/16 05:15:51;;;;;;;3.40;1.45;;;;;;;;;;6274795;22;20001;-83
2024/04/16 05:18:27;;;;;;;6.65;1.70;;;;;;;;;;6275661;22;20005;-83
2024/04/16 05:20:56;;;;;;;3.40;1.67;;;;;;;;;;6275793;22;20462;-84
2024/04/16 05:23:23;;;;;;;2.38;1.52;;;;;;;;;;6314858;22;20004;-84
2024/04/16 05:26:02;;;;;;;3.78;1.70;;;;;;;;;;6314275;22;20033;-84
2024/04/16 05:28:35;;;;;;;7.75;1.83;;;;;;;;;;6315278;22;20004;-84
2024/04/16 05:31:15;;;;;;;2.20;1.33;;;;;;;;;;6277757;22;20000;-83
2024/04/16 05:33:43;;;;;;;3.30;1.52;;;;;;;;;;6277483;22;20473;-84
2024/04/16 05:36:17;;;;;;;3.33;1.50;;;;;;;;;;6277843;22;20005;-84
2024/04/16 05:38:50;;;;;;;3.42;1.70;;;;;;;;;;6314287;22;20048;-84
2024/04/16 05:41:24;;;;;;;4.20;1.92;;;;;;;;;;6313695;22;20077;-84
2024/04/16 05:43:57;;;;;;;1.55;1.38;;;;;;;;;;6277228;22;20084;-84
2024/04/16 05:46:25;;;;;;;5.55;1.83;;;;;;;;;;6276794;22;20016;-84
2024/04/16 05:48:59;;;;;;;2.33;1.58;;;;;;;;;;6275873;22;20008;-83
2024/04/16 05:51:27;;;;;;;1.35;1.23;;;;;;;;;;6315600;22;20011;-84
2024/04/16 05:53:54;;;;;;;2.17;1.60;;;;;;;;;;6276769;22;20012;-84
2024/04/16 05:56:27;;;;;;;1.75;1.40;;;;;;;;;;6314406;22;20077;-84
2024/04/16 05:58:55;;;;;;;7.85;1.60;;;;;;;;;;6315877;22;20018;-84
2024/04/16 06:01:30;;;;;;;2.50;1.30;;;;;;;;;;6312326;22;20005;-84
2024/04/16 06:03:57;;;;;;;;;;;;;;;;;;6277101;22;20077;-84
2024/04/16 06:06:24;;;;;;;2.72;1.40;;;;;;;;;;6278165;22;19932;-84
2024/04/16 06:09:05;;;;;;;4.35;1.58;;;;;;;;;;6314317;22;20014;-85
2024/04/16 06:11:33;;;;;;;2.22;1.48;;;;;;;;;;6326862;22;20087;-84
2024/04/16 06:14:07;;;;;;;2.53;1.50;;;;;;;;;;6323804;22;20004;-84
2024/04/16 06:16:34;;;;;;;;;;;;;;;;;;6324965;22;20003;-84
2024/04/16 06:19:02;;;;;;;3.03;1.77;;;;;;;;;;6324772;22;20519;-84
2024/04/16 06:21:36;;;;;;;3.80;1.58;;;;;;;;;;6325390;22;20197;-83
2024/04/16 06:24:03;;;;;;;3.15;1.42;;;;;;;;;;6323554;22;20014;-84
2024/04/16 06:26:31;;;;;;;2.40;1.40;;;;;;;;;;6325672;22;20016;-84
2024/04/16 06:29:06;;;;;;;2.55;1.60;;;;;;;;;;6323740;22;20261;-84
2024/04/16 06:31:33;;;;;;;2.38;1.60;;;;;;;;;;6325544;22;20552;-84
2024/04/16 06:34:00;;;;;;;3.20;1.52;;;;;;;;;;6323685;22;20450;-83
2024/04/16 06:36:35;;;;;;;1.83;1.30;;;;;;;;;;6324489;22;20307;-84
2024/04/16 06:39:08;;;;;;;1.95;1.30;;;;;;;;;;6322581;22;20513;-84
2024/04/16 06:41:42;;;;;;;3.47;1.42;;;;;;;;;;6323157;22;20004;-83
2024/04/16 06:44:09;;;;;;;2.75;1.40;;;;;;;;;;6325454;22;20080;-84
2024/04/16 06:46:36;;;;;;;1.77;1.20;;;;;;;;;;6323408;22;20000;-83
2024/04/16 06:49:11;;;;;;;2.75;1.38;;;;;;;;;;6325342;22;20015;-84
2024/04/16 06:51:46;;;;;;;3.60;1.27;;;;;;;;;;6324144;22;20011;-84
2024/04/16 06:54:20;;;;;;;4.65;1.50;;;;;;;;;;6324723;22;20012;-85
2024/04/16 06:56:47;;;;;;;1.75;1.20;;;;;;;;;;6327210;22;20506;-85
2024/04/16 06:59:21;;;;;;;1.52;1.10;;;;;;;;;;6326782;22;20004;-84
2024/04/16 07:01:48;;;;;;;1.55;1.27;;;;;;;;;;6325250;22;20385;-84
2024/04/16 07:04:15;;;;;;;2.83;1.25;;;;;;;;;;6324803;22;20004;-84
2024/04/16 07:06:50;;;;;;;2.05;1.23;;;;;;;;;;6325929;22;20016;-84
2024/04/16 07:09:23;;;;;;;2.42;1.40;;;;;;;;;;6315260;22;20005;-84
2024/04/16 07:11:58;;;;;;;3.38;1.50;;;;;;;;;;6313777;22;20012;-85
2024/04/16 07:14:25;;;;;;;;;;;;;;;;;;6277403;22;20000;-85
2024/04/16 07:16:53;;;;;;;2.33;1.17;;;;;;;;;;6275279;22;19925;-84
2024/04/16 07:19:27;;;;;;;1.70;1.13;;;;;;;;;;6313106;22;20021;-85
2024/04/16 07:21:54;;;;;;;1.83;1.23;;;;;;;;;;6277634;22;20001;-85
2024/04/16 07:24:28;;;;;;;3.42;1.13;;;;;;;;;;6277124;22;20045;-84
2024/04/16 07:26:55;;;;;;;3.53;1.30;;;;;;;;;;6316072;22;20038;-84
2024/04/16 07:29:22;;;;;;;3.95;1.13;;;;;;;;;;6314653;22;20008;-84
2024/04/16 07:32:03;;;;;;;3.33;1.10;;;;;;;;;;6314460;22;20011;-84
2024/04/16 07:34:31;;;;;;;2.90;1.05;;;;;;;;;;6315215;22;20008;-84
2024/04/16 07:37:05;;;;;;;2.05;0.82;;;;;;;;;;6313600;22;20008;-85
2024/04/16 07:39:32;;;;;;;1.45;1.15;;;;;;;;;;6276936;22;20016;-84
2024/04/16 07:42:07;;;;;;;2.30;1.48;;;;;;;;;;6277139;22;20450;-84
2024/04/16 07:44:35;;;;;;;2.42;1.48;;;;;;;;;;6276638;22;20019;-85
2024/04/16 07:47:03;;;;;;;2.35;1.13;;;;;;;;;;6277371;22;20012;-85
2024/04/16 07:49:37;;;;;;;4.43;1.10;;;;;;;;;;6277047;22;20009;-86
2024/04/16 07:52:06;;;;;;;3.00;1.20;;;;;;;;;;6276078;22;20032;-85
2024/04/16 07:54:40;;;;;;;2.60;1.42;;;;;;;;;;6278479;22;20005;-85
2024/04/16 07:57:07;;;;;;;1.42;1.20;;;;;;;;;;6277751;22;20018;-84
2024/04/16 07:59:34;;;;;;;2.45;1.13;;;;;;;;;;6277393;22;20040;-86
2024/04/16 08:02:09;;;;;;;2.25;1.38;;;;;;;;;;6313574;22;20019;-85
2024/04/16 08:04:36;;;;;;;3.20;1.30;;;;;;;;;;6315276;22;20011;-86
2024/04/16 08:07:11;;;;;;;2.88;1.30;;;;;;;;;;6315354;22;20008;-84
2024/04/16 08:09:45;;;;;;;2.83;1.40;;;;;;;;;;6316447;22;20016;-85
2024/04/16 08:12:19;;;;;;;4.55;1.10;;;;;;;;;;6278513;22;20004;-85
2024/04/16 08:14:52;;;;;;;1.40;1.17;;;;;;;;;;6278499;22;20085;-86
2024/04/16 08:17:20;;;;;;;1.83;1.27;;;;;;;;;;6277943;22;20292;-85
2024/04/16 08:19:48;;;;;;;1.88;1.10;;;;;;;;;;6276930;22;20061;-86
2024/04/16 08:22:22;;;;;;;4.72;1.00;;;;;;;;;;6275696;22;20001;-86
2024/04/16 08:24:57;;;;;;;2.38;1.50;;;;;;;;;;6276169;22;20016;-85
2024/04/16 08:27:24;;;;;;;2.40;1.10;;;;;;;;;;6277076;22;20001;-86
2024/04/16 08:29:51;;;;;;;2.08;1.15;;;;;;;;;;6276009;22;20335;-84
2024/04/16 08:32:32;;;;;;;2.60;1.50;;;;;;;;;;6311401;22;20013;-86
2024/04/16 08:35:00;;;;;;;3.40;1.05;;;;;;;;;;6313520;22;20285;-84
2024/04/16 08:37:34;;;;;;;1.95;1.02;;;;;;;;;;6312172;22;20690;-84
2024/04/16 08:40:01;;;;;;;2.28;1.30;;;;;;;;;;6313928;22;20005;-85
2024/04/16 08:42:29;;;;;;;1.75;1.30;;;;;;;;;;6314451;22;20001;-85
2024/04/16 08:45:04;;;;;;;1.50;1.02;;;;;;;;;;6311374;22;20005;-85
2024/04/16 08:47:32;;;;;;;2.45;1.25;;;;;;;;;;6314176;22;20388;-86
2024/04/16 08:50:07;;;;;;;3.83;1.50;;;;;;;;;;6311055;22;20016;-86
2024/04/16 08:52:35;;;;;;;3.70;1.30;;;;;;;;;;6313806;22;20008;-85
2024/04/16 08:55:09;;;;;;;2.25;1.13;;;;;;;;;;6275434;22;20008;-85
2024/04/16 08:57:40;;;;;;;1.55;1.30;;;;;;;;;;6313709;22;19997;-84
2024/04/16 09:00:08;;;;;;;3.13;1.25;;;;;;;;;;6314064;22;20013;-86
2024/04/16 09:02:42;;;;;;;6.63;1.20;;;;;;;;;;6276054;22;20005;-86
2024/04/16 09:05:10;;;;;;;3.17;1.20;;;;;;;;;;6275852;22;20000;-87
2024/04/16 09:07:39;;;;;;;3.35;1.10;;;;;;;;;;6278777;22;20378;-86
2024/04/16 09:10:20;;;;;;;1.02;0.95;;;;;;;;;;6321746;22;20004;-86
2024/04/16 09:12:48;;;;;;;1.95;1.30;;;;;;;;;;6322392;22;20011;-87
2024/04/16 09:15:22;;;;;;;2.08;1.08;;;;;;;;;;6322134;22;20008;-86
2024/04/16 09:17:53;;;;;;;2.80;1.00;;;;;;;;;;6324658;22;20002;-87
2024/04/16 09:20:24;;;;;;;1.80;1.20;;;;;;;;;;6322028;22;20137;-87
2024/04/16 09:22:59;;;;;;;2.05;1.15;;;;;;;;;;6321699;22;20132;-87
2024/04/16 09:25:32;;;;;;;2.85;1.25;;;;;;;;;;6321741;22;20019;-86
2024/04/16 09:28:06;;;;;;;1.60;0.90;;;;;;;;;;6323801;22;20317;-87
2024/04/16 09:30:34;;;;;;;1.85;1.25;;;;;;;;;;6321926;22;20003;-87
2024/04/16 09:33:09;;;;;;;2.63;1.20;;;;;;;;;;6322458;22;20023;-86
2024/04/16 09:35:43;;;;;;;3.40;1.00;;;;;;;;;;6323943;22;20000;-86
2024/04/16 09:38:11;;;;;;;3.85;1.30;;;;;;;;;;6325117;22;20004;-88
2024/04/16 09:40:53;;;;;;;4.28;1.33;;;;;;;;;;6322720;22;20011;-87
2024/04/16 09:43:27;;;;;;;3.03;1.00;;;;;;;;;;6323624;22;20004;-87
2024/04/16 09:46:10;;;;;;;2.33;1.10;;;;;;;;;;6324020;22;20006;-88
2024/04/16 09:48:47;;;;;;;3.50;1.27;;;;;;;;;;6324148;22;20011;-86
2024/04/16 09:51:23;;;;;;;2.53;1.23;;;;;;;;;;6321789;22;20008;-88
2024/04/16 09:53:52;;;;;;;4.32;1.50;;;;;;;;;;6324188;22;20003;-85
2024/04/16 09:56:28;;;;;;;2.65;1.10;;;;;;;;;;6324029;22;20015;-85
2024/04/16 09:58:55;;;;;;;2.35;1.20;;;;;;;;;;6323185;22;20016;-86
2024/04/16 10:01:31;;;;;;;2.35;1.30;;;;;;;;;;6323416;22;20018;-86
2024/04/16 10:03:59;;;;;;;3.85;1.30;;;;;;;;;;6324014;22;20019;-85
2024/04/16 10:06:26;;;;;;;1.92;1.02;;;;;;;;;;6323896;22;20057;-85
2024/04/16 10:09:06;;;;;;;3.50;1.02;;;;;;;;;;6320900;22;20016;-85
2024/04/16 10:11:34;;;;;;;2.25;1.10;;;;;;;;;;6325266;22;20000;-84
2024/04/16 10:14:08;;;;;;;3.05;1.10;;;;;;;;;;6323931;22;20091;-85
2024/04/16 10:16:37;;;;;;;3.55;1.33;;;;;;;;;;6325106;22;20010;-85
2024/04/16 10:19:06;;;;;;;1.42;1.00;;;;;;;;;;6325208;22;20020;-86
2024/04/16 10:21:41;;;;;;;2.38;1.27;;;;;;;;;;6323601;22;19996;-85
2024/04/16 10:24:11;;;;;;;2.10;1.10;;;;;;;;;;6326820;22;20047;-86
2024/04/16 10:26:48;;;;;;;2.10;1.02;;;;;;;;;;6325788;22;20000;-84
2024/04/16 10:29:23;;;;;;;3.42;1.10;;;;;;;;;;6323472;22;20484;-86
2024/04/16 10:31:58;;;;;;;1.60;0.98;;;;;;;;;;6324074;22;20015;-86
2024/04/16 10:34:27;;;;;;;2.15;1.10;;;;;;;;;;6323332;22;20015;-85
2024/04/16 10:36:56;;;;;;;2.05;1.00;;;;;;;;;;6322767;22;20068;-85
2024/04/16 10:39:34;;;;;;;4.60;1.10;;;;;;;;;;6326336;22;20007;-85
2024/04/16 10:42:10;;;;;;;1.73;0.90;;;;;;;;;;6324105;22;20000;-87
2024/04/16 10:44:44;;;;;;;2.28;1.17;;;;;;;;;;6325915;22;20008;-86
2024/04/16 10:47:13;;;;;;;5.63;0.90;;;;;;;;;;6325633;22;20003;-87
2024/04/16 10:49:47;;;;;;;2.42;1.15;;;;;;;;;;6325076;22;20008;-86
2024/04/16 10:52:15;;;;;;;4.20;1.33;;;;;;;;;;6325243;22;20334;-86
2024/04/16 10:54:52;;;;;;;2.35;1.10;;;;;;;;;;6323877;22;20080;-86
2024/04/16 10:57:20;;;;;;;3.97;1.38;;;;;;;;;;6326809;22;20004;-85
2024/04/16 10:59:48;;;;;;;1.25;0.90;;;;;;;;;;6326389;22;20000;-86
2024/04/16 11:02:35;;;;;;;2.83;1.30;;;;;;;;;;6324232;22;20015;-86
2024/04/16 11:05:02;;;;;;;1.33;0.80;;;;;;;;;;6325864;22;20508;-86
2024/04/16 11:07:43;;;;;;;3.47;1.10;;;;;;;;;;6322677;22;20023;-86
2024/04/16 11:10:18;;;;;;;3.30;1.20;;;;;;;;;;6322496;22;20008;-86
2024/04/16 11:12:53;;;;;;;1.83;0.93;;;;;;;;;;6325565;22;20010;-85
2024/04/16 11:15:32;;;;;;;2.10;1.00;;;;;;;;;;6323498;22;20016;-85
2024/04/16 11:18:00;;;;;;;2.33;1.08;;;;;;;;;;6323579;22;20663;-86
2024/04/16 11:20:34;;;;;;;2.50;0.88;;;;;;;;;;6324934;22;20014;-85
2024/04/16 11:23:02;;;;;;;3.08;1.40;;;;;;;;;;6323113;22;20016;-85
2024/04/16 11:25:29;;;;;;;;;;;;;;;;;;6325423;22;20014;-85
2024/04/16 11:28:03;;;;;;;2.35;0.98;;;;;;;;;;6285446;22;19924;-86
2024/04/16 11:30:30;;;;;;;1.77;0.82;;;;;;;;;;6323246;22;20018;-86
2024/04/16 11:33:11;;;;;;;4.07;1.20;;;;;;;;;;6323971;22;20000;-85
2024/04/16 11:35:49;;;;;;;4.45;1.33;;;;;;;;;;6323766;22;20004;-86
2024/04/16 11:38:23;;;;;;;0.70;0.70;;;;;;;;;;6322636;22;20012;-85
2024/04/16 11:40:57;;;;;;;1.48;1.05;;;;;;;;;;6323859;22;20019;-86
2024/04/16 11:43:46;;;;;;;1.65;0.90;;;;;;;;;;6324905;22;20306;-86
2024/04/16 11:46:14;;;;;;;1.60;0.93;;;;;;;;;;6323776;22;20026;-86
2024/04/16 11:48:48;;;;;;;2.53;0.98;;;;;;;;;;6323726;22;20591;-86
2024/04/16 11:51:16;;;;;;;2.33;0.93;;;;;;;;;;6324605;22;20402;-87
2024/04/16 11:53:44;;;;;;;;;;;;;;;;;;6324390;22;20007;-86
2024/04/16 11:56:18;;;;;;;1.95;1.08;;;;;;;;;;6286165;22;19936;-86
2024/04/16 11:58:45;;;;;;;2.38;1.10;;;;;;;;;;6326260;22;20016;-87
2024/04/16 12:01:19;;;;;;;3.30;0.95;;;;;;;;;;6324206;22;20004;-87
2024/04/16 12:03:46;;;;;;;;;;;;;;;;;;6326720;22;20080;-86
2024/04/16 12:06:14;;;;;;;1.42;0.75;;;;;;;;;;6326309;22;19924;-87
2024/04/16 12:08:54;;;;;;;1.40;0.82;;;;;;;;;;6323958;22;20015;-87
2024/04/16 12:11:28;;;;;;;3.70;1.17;;;;;;;;;;6323726;22;20004;-86
2024/04/16 12:14:02;;;;;;;1.77;1.02;;;;;;;;;;6326657;22;20000;-86
2024/04/16 12:16:30;;;;;;;0.77;0.65;;;;;;;;;;6328759;22;20020;-87
2024/04/16 12:18:58;;;;;;;2.08;0.77;;;;;;;;;;6330791;22;20044;-87
2024/04/16 12:21:33;;;;;;;2.47;0.75;;;;;;;;;;6331832;22;20047;-86
2024/04/16 12:24:00;;;;;;;1.50;0.57;;;;;;;;;;6330322;22;20012;-86
2024/04/16 12:26:28;;;;;;;1.08;0.68;;;;;;;;;;6329829;22;20303;-86
2024/04/16 12:29:02;;;;;;;1.42;0.63;;;;;;;;;;6330951;22;20003;-86
2024/04/16 12:31:29;;;;;;;2.38;0.95;;;;;;;;;;6327744;22;20422;-86
2024/04/16 12:34:10;;;;;;;0.63;0.60;;;;;;;;;;6324900;22;20087;-85
2024/04/16 12:36:38;;;;;;;0.55;0.52;;;;;;;;;;6323995;22;20019;-86
2024/04/16 12:39:12;;;;;;;1.40;0.70;;;;;;;;;;6324057;22;20004;-85
2024/04/16 12:41:41;;;;;;;2.03;0.75;;;;;;;;;;6325353;22;20015;-87
2024/04/16 12:44:14;;;;;;;1.40;0.50;;;;;;;;;;6325534;22;20060;-86
2024/04/16 12:46:49;;;;;;;3.08;0.60;;;;;;;;;;6323944;22;20000;-85
2024/04/16 12:49:16;;;;;;;1.42;0.88;;;;;;;;;;6323624;22;20015;-85
2024/04/16 12:51:50;;;;;;;1.30;0.73;;;;;;;;;;6322570;22;20062;-87
2024/04/16 12:54:18;;;;;;;1.00;0.68;;;;;;;;;;6322111;22;20016;-85
2024/04/16 12:56:48;;;;;;;0.70;0.60;;;;;;;;;;6325291;22;20525;-86
2024/04/16 12:59:22;;;;;;;1.73;0.68;;;;;;;;;;6322298;22;20008;-85
2024/04/16 13:01:49;;;;;;;1.65;0.68;;;;;;;;;;6323116;22;20411;-85
2024/04/16 13:04:23;;;;;;;1.35;0.57;;;;;;;;;;6323091;22;20000;-86
2024/04/16 13:06:50;;;;;;;1.17;0.63;;;;;;;;;;6325887;22;20047;-86
2024/04/16 13:09:17;;;;;;;1.35;0.47;;;;;;;;;;6313373;22;20023;-87
2024/04/16 13:11:58;;;;;;;0.77;0.50;;;;;;;;;;6275732;22;20048;-86
2024/04/16 13:14:26;;;;;;;1.10;0.52;;;;;;;;;;6275806;22;20001;-86
2024/04/16 13:17:00;;;;;;;1.20;0.63;;;;;;;;;;6310801;22;20624;-85
2024/04/16 13:19:27;;;;;;;2.45;0.68;;;;;;;;;;6314093;22;20105;-86
2024/04/16 13:21:55;;;;;;;1.48;0.73;;;;;;;;;;6314880;22;20005;-86
2024/04/16 13:24:29;;;;;;;1.42;0.50;;;;;;;;;;6274529;22;20009;-85
2024/04/16 13:26:57;;;;;;;0.82;0.50;;;;;;;;;;6313113;22;20383;-86
2024/04/16 13:29:31;;;;;;;2.40;0.60;;;;;;;;;;6311467;22;20009;-86
2024/04/16 13:31:58;;;;;;;0.80;0.50;;;;;;;;;;6313347;22;20086;-86
2024/04/16 13:34:32;;;;;;;1.60;0.60;;;;;;;;;;6274958;22;20012;-85
2024/04/16 13:37:08;;;;;;;1.25;0.73;;;;;;;;;;6276327;22;20081;-86
2024/04/16 13:39:35;;;;;;;0.85;0.57;;;;;;;;;;6314074;22;20004;-87
2024/04/16 13:42:10;;;;;;;2.92;0.70;;;;;;;;;;6311535;22;20089;-85
2024/04/16 13:44:37;;;;;;;2.63;0.65;;;;;;;;;;6314749;22;20005;-86
2024/04/16 13:47:11;;;;;;;1.80;0.50;;;;;;;;;;6276980;22;20005;-84
2024/04/16 13:49:38;;;;;;;1.13;0.60;;;;;;;;;;6277815;22;20001;-85
2024/04/16 13:52:05;;;;;;;;;;;;;;;;;;6316345;22;20044;-85
2024/04/16 13:54:40;;;;;;;1.30;0.65;;;;;;;;;;6277398;22;19957;-85
2024/04/16 13:57:07;;;;;;;0.70;0.60;;;;;;;;;;6314662;22;20017;-86
2024/04/16 13:59:35;;;;;;;0.93;0.50;;;;;;;;;;6315764;22;20715;-86
2024/04/16 14:02:09;;;;;;;0.50;0.50;;;;;;;;;;6276967;22;20315;-86
2024/04/16 14:04:36;;;;;;;;;;;;;;;;;;6317001;22;20080;-86
2024/04/16 14:07:10;;;;;;;2.25;1.13;;;;;;;;;;6275225;22;19932;-84
2024/04/16 14:09:44;;;;;;;1.35;0.60;;;;;;;;;;6309074;22;20036;-85
2024/04/16 14:12:19;;;;;;;2.30;0.70;;;;;;;;;;6326556;22;20016;-85
2024/04/16 14:14:46;;;;;;;1.25;0.70;;;;;;;;;;6324575;22;20088;-87
2024/04/16 14:17:14;;;;;;;2.30;0.85;;;;;;;;;;6324510;22;20004;-85
2024/04/16 14:19:48;;;;;;;1.20;0.57;;;;;;;;;;6325521;22;20771;-84
2024/04/16 14:22:15;;;;;;;;;;;;;;;;;;6324471;22;20018;-86
2024/04/16 14:24:43;;;;;;;2.00;0.70;;;;;;;;;;6325459;22;19944;-84
2024/04/16 14:27:17;;;;;;;2.42;1.08;;;;;;;;;;6323315;22;20004;-85
2024/04/16 14:29:47;;;;;;;1.13;0.60;;;;;;;;;;6325164;22;19996;-84
2024/04/16 14:32:15;;;;;;;0.88;0.50;;;;;;;;;;6322938;22;20057;-85
2024/04/16 14:34:55;;;;;;;4.63;0.73;;;;;;;;;;6324383;22;20000;-85
2024/04/16 14:37:23;;;;;;;1.05;0.70;;;;;;;;;;6323510;22;20004;-87
2024/04/16 14:39:57;;;;;;;0.70;0.47;;;;;;;;;;6323808;22;20010;-85
2024/04/16 14:42:25;;;;;;;4.13;0.93;;;;;;;;;;6325666;22;20015;-84
2024/04/16 14:44:59;;;;;;;0.43;0.43;;;;;;;;;;6322379;22;20032;-85
2024/04/16 14:47:32;;;;;;;0.40;0.40;;;;;;;;;;6322703;22;20060;-85
2024/04/16 14:50:08;;;;;;;0.52;0.45;;;;;;;;;;6324558;22;20053;-85
2024/04/16 14:52:36;;;;;;;2.58;1.08;;;;;;;;;;6322912;22;20011;-84
2024/04/16 14:55:03;;;;;;;0.40;0.40;;;;;;;;;;6322721;22;20010;-84
2024/04/16 14:57:38;;;;;;;1.52;0.60;;;;;;;;;;6323202;22;20007;-85
2024/04/16 15:00:09;;;;;;;0.80;0.55;;;;;;;;;;6323558;22;20011;-85
2024/04/16 15:02:43;;;;;;;1.67;0.77;;;;;;;;;;6324603;22;20008;-85
2024/04/16 15:05:10;;;;;;;0.63;0.50;;;;;;;;;;6325146;22;20080;-84
2024/04/16 15:07:38;;;;;;;1.30;0.63;;;;;;;;;;6324514;22;20305;-84
2024/04/16 15:10:18;;;;;;;1.35;0.60;;;;;;;;;;6323486;22;20004;-85
2024/04/16 15:12:46;;;;;;;1.58;0.85;;;;;;;;;;6325637;22;20000;-84
2024/04/16 15:15:20;;;;;;;0.70;0.60;;;;;;;;;;6324951;22;20084;-85